sensor_id;sensor_type;location;lat;lon;timestamp;pressure;altitude;pressure_sealevel;temperature;humidity
32298;BME280;18782;48.984;8.548;2022-09-03T00:02:06;99489.03;;;20.27;54.05
32298;BME280;18782;48.984;8.548;2022-09-03T00:04:38;99476.88;;;20.24;53.98
32298;BME280;18782;48.984;8.548;2022-09-03T00:07:16;99475.13;;;20.25;55.11
32298;BME280;18782;48.984;8.548;2022-09-03T00:09:50;99482.91;;;20.28;56.61
32298;BME280;18782;48.984;8.548;2022-09-03T00:12:25;99481.22;;;20.25;56.85
32298;BME280;18782;48.984;8.548;2022-09-03T00:14:58;99485.59;;;20.25;57.36
32298;BME280;18782;48.984;8.548;2022-09-03T00:17:31;99485.69;;;20.22;57.83
32298;BME280;18782;48.984;8.548;2022-09-03T00:20:02;99487.44;;;20.20;58.32
32298;BME280;18782;48.984;8.548;2022-09-03T00:22:37;99487.44;;;20.20;58.49
32298;BME280;18782;48.984;8.548;2022-09-03T00:25:10;99494.41;;;20.21;59.05
32298;BME280;18782;48.984;8.548;2022-09-03T00:27:42;99495.47;;;20.12;59.72
32298;BME280;18782;48.984;8.548;2022-09-03T00:30:13;99493.75;;;20.10;59.98
32298;BME280;18782;48.984;8.548;2022-09-03T00:32:44;99492.03;;;20.08;60.29
32298;BME280;18782;48.984;8.548;2022-09-03T00:35:17;99493.09;;;20.01;60.34
32298;BME280;18782;48.984;8.548;2022-09-03T00:37:51;99486.97;;;20.02;60.44
32298;BME280;18782;48.984;8.548;2022-09-03T00:40:34;99486.97;;;20.02;60.78
32298;BME280;18782;48.984;8.548;2022-09-03T00:43:13;99494.78;;;20.02;60.77
32298;BME280;18782;48.984;8.548;2022-09-03T00:45:52;99493.00;;;20.04;62.26
32298;BME280;18782;48.984;8.548;2022-09-03T00:48:25;99487.00;;;20.01;61.36
32298;BME280;18782;48.984;8.548;2022-09-03T00:51:13;99483.63;;;19.96;61.70
32298;BME280;18782;48.984;8.548;2022-09-03T00:53:52;99489.09;;;19.84;61.62
32298;BME280;18782;48.984;8.548;2022-09-03T00:56:27;99492.53;;;19.86;62.51
32298;BME280;18782;48.984;8.548;2022-09-03T00:59:08;99488.22;;;19.83;62.37
32298;BME280;18782;48.984;8.548;2022-09-03T01:01:45;99495.19;;;19.84;62.90
32298;BME280;18782;48.984;8.548;2022-09-03T01:04:29;99502.19;;;19.82;62.34
32298;BME280;18782;48.984;8.548;2022-09-03T01:07:07;99502.34;;;19.74;62.85
32298;BME280;18782;48.984;8.548;2022-09-03T01:09:49;99507.53;;;19.76;63.30
32298;BME280;18782;48.984;8.548;2022-09-03T01:12:28;99507.66;;;19.70;63.52
32298;BME280;18782;48.984;8.548;2022-09-03T01:15:08;99504.16;;;19.71;64.03
32298;BME280;18782;48.984;8.548;2022-09-03T01:17:49;99504.19;;;19.69;63.92
32298;BME280;18782;48.984;8.548;2022-09-03T01:20:28;99508.66;;;19.63;63.76
32298;BME280;18782;48.984;8.548;2022-09-03T01:26:31;99508.88;;;19.50;64.51
32298;BME280;18782;48.984;8.548;2022-09-03T01:29:13;99507.19;;;19.46;65.21
32298;BME280;18782;48.984;8.548;2022-09-03T01:31:52;99508.16;;;19.42;65.10
32298;BME280;18782;48.984;8.548;2022-09-03T01:34:32;99496.09;;;19.35;64.95
32298;BME280;18782;48.984;8.548;2022-09-03T01:37:08;99508.38;;;19.30;65.65
32298;BME280;18782;48.984;8.548;2022-09-03T01:39:52;99506.88;;;19.15;65.34
32298;BME280;18782;48.984;8.548;2022-09-03T01:42:31;99505.22;;;19.13;66.14
32298;BME280;18782;48.984;8.548;2022-09-03T01:45:17;99507.00;;;19.11;67.02
32298;BME280;18782;48.984;8.548;2022-09-03T01:47:58;99524.41;;;19.09;66.68
32298;BME280;18782;48.984;8.548;2022-09-03T01:50:38;99513.06;;;19.10;67.04
32298;BME280;18782;48.984;8.548;2022-09-03T01:53:16;99514.84;;;19.08;66.46
32298;BME280;18782;48.984;8.548;2022-09-03T01:56:01;99516.53;;;19.12;66.92
32298;BME280;18782;48.984;8.548;2022-09-03T01:58:39;99509.63;;;19.08;67.17
32298;BME280;18782;48.984;8.548;2022-09-03T02:01:13;99516.72;;;18.99;67.16
32298;BME280;18782;48.984;8.548;2022-09-03T02:03:44;99521.44;;;18.77;67.63
32298;BME280;18782;48.984;8.548;2022-09-03T02:06:12;99517.28;;;18.64;67.75
32298;BME280;18782;48.984;8.548;2022-09-03T02:08:41;99521.56;;;18.67;68.89
32298;BME280;18782;48.984;8.548;2022-09-03T02:11:09;99528.53;;;18.69;69.88
32298;BME280;18782;48.984;8.548;2022-09-03T02:13:38;99535.41;;;18.72;69.81
32298;BME280;18782;48.984;8.548;2022-09-03T02:16:11;99527.56;;;18.73;69.40
32298;BME280;18782;48.984;8.548;2022-09-03T02:18:44;99521.56;;;18.67;69.44
32298;BME280;18782;48.984;8.548;2022-09-03T02:21:14;99514.63;;;18.66;69.44
32298;BME280;18782;48.984;8.548;2022-09-03T02:23:43;99520.63;;;18.72;69.51
32298;BME280;18782;48.984;8.548;2022-09-03T02:26:12;99518.09;;;18.68;70.21
32298;BME280;18782;48.984;8.548;2022-09-03T02:28:43;99520.81;;;18.60;68.61
32298;BME280;18782;48.984;8.548;2022-09-03T02:31:12;99530.59;;;18.44;69.51
32298;BME280;18782;48.984;8.548;2022-09-03T02:33:43;99518.34;;;18.49;69.80
32298;BME280;18782;48.984;8.548;2022-09-03T02:36:13;99515.72;;;18.51;70.80
32298;BME280;18782;48.984;8.548;2022-09-03T02:38:42;99520.03;;;18.54;70.25
32298;BME280;18782;48.984;8.548;2022-09-03T02:41:11;99514.03;;;18.48;69.94
32298;BME280;18782;48.984;8.548;2022-09-03T02:43:44;99501.84;;;18.47;69.30
32298;BME280;18782;48.984;8.548;2022-09-03T02:46:17;99501.16;;;18.36;69.13
32298;BME280;18782;48.984;8.548;2022-09-03T02:48:47;99502.09;;;18.32;69.58
32298;BME280;18782;48.984;8.548;2022-09-03T02:51:15;99495.94;;;18.36;70.11
32298;BME280;18782;48.984;8.548;2022-09-03T02:53:43;99508.16;;;18.34;70.35
32298;BME280;18782;48.984;8.548;2022-09-03T02:56:11;99513.31;;;18.39;70.34
32298;BME280;18782;48.984;8.548;2022-09-03T02:58:38;99497.56;;;18.45;70.55
32298;BME280;18782;48.984;8.548;2022-09-03T03:01:06;99502.75;;;18.46;70.83
32298;BME280;18782;48.984;8.548;2022-09-03T03:03:35;99503.59;;;18.47;71.09
32298;BME280;18782;48.984;8.548;2022-09-03T03:06:04;99499.25;;;18.47;70.07
32298;BME280;18782;48.984;8.548;2022-09-03T03:08:32;99499.31;;;18.44;70.06
32298;BME280;18782;48.984;8.548;2022-09-03T03:11:00;99513.25;;;18.43;70.68
32298;BME280;18782;48.984;8.548;2022-09-03T03:13:29;99511.53;;;18.41;70.04
32298;BME280;18782;48.984;8.548;2022-09-03T03:15:58;99514.22;;;18.35;69.89
32298;BME280;18782;48.984;8.548;2022-09-03T03:18:28;99515.19;;;18.26;70.52
32298;BME280;18782;48.984;8.548;2022-09-03T03:20:57;99510.00;;;18.26;70.81
32298;BME280;18782;48.984;8.548;2022-09-03T03:23:30;99517.88;;;18.23;70.97
32298;BME280;18782;48.984;8.548;2022-09-03T03:26:00;99520.50;;;18.20;71.60
32298;BME280;18782;48.984;8.548;2022-09-03T03:28:28;99507.50;;;18.18;71.90
32298;BME280;18782;48.984;8.548;2022-09-03T03:30:57;99506.66;;;18.15;71.72
32298;BME280;18782;48.984;8.548;2022-09-03T03:33:25;99511.03;;;18.11;71.35
32298;BME280;18782;48.984;8.548;2022-09-03T03:35:52;99501.53;;;18.12;70.89
32298;BME280;18782;48.984;8.548;2022-09-03T03:38:21;99501.47;;;18.15;71.80
32298;BME280;18782;48.984;8.548;2022-09-03T03:40:49;99513.66;;;18.13;72.31
32298;BME280;18782;48.984;8.548;2022-09-03T03:43:17;99520.78;;;17.98;72.43
32298;BME280;18782;48.984;8.548;2022-09-03T03:45:55;99516.47;;;17.96;72.71
32298;BME280;18782;48.984;8.548;2022-09-03T03:48:23;99512.06;;;18.01;73.16
32298;BME280;18782;48.984;8.548;2022-09-03T03:50:50;99520.75;;;18.02;73.08
32298;BME280;18782;48.984;8.548;2022-09-03T03:53:18;99524.22;;;18.00;72.60
32298;BME280;18782;48.984;8.548;2022-09-03T03:55:54;99531.94;;;18.08;73.09
32298;BME280;18782;48.984;8.548;2022-09-03T03:58:22;99538.81;;;18.14;73.76
32298;BME280;18782;48.984;8.548;2022-09-03T04:00:51;99544.81;;;18.19;74.16
32298;BME280;18782;48.984;8.548;2022-09-03T04:03:19;99543.91;;;18.23;73.08
32298;BME280;18782;48.984;8.548;2022-09-03T04:05:57;99548.28;;;18.19;73.04
32298;BME280;18782;48.984;8.548;2022-09-03T04:08:26;99546.50;;;18.21;72.69
32298;BME280;18782;48.984;8.548;2022-09-03T04:10:58;99551.72;;;18.23;72.73
32298;BME280;18782;48.984;8.548;2022-09-03T04:13:27;99539.59;;;18.22;72.69
32298;BME280;18782;48.984;8.548;2022-09-03T04:15:59;99539.53;;;18.25;71.91
32298;BME280;18782;48.984;8.548;2022-09-03T04:18:27;99539.50;;;18.28;72.39
32298;BME280;18782;48.984;8.548;2022-09-03T04:20:58;99538.56;;;18.32;72.99
32298;BME280;18782;48.984;8.548;2022-09-03T04:23:30;99537.69;;;18.33;72.94
32298;BME280;18782;48.984;8.548;2022-09-03T04:25:59;99534.25;;;18.33;73.22
32298;BME280;18782;48.984;8.548;2022-09-03T04:28:27;99541.13;;;18.35;73.58
32298;BME280;18782;48.984;8.548;2022-09-03T04:30:59;99546.38;;;18.32;73.34
32298;BME280;18782;48.984;8.548;2022-09-03T04:33:28;99551.59;;;18.32;73.10
32298;BME280;18782;48.984;8.548;2022-09-03T04:36:08;99550.66;;;18.38;72.92
32298;BME280;18782;48.984;8.548;2022-09-03T04:38:37;99554.16;;;18.35;74.22
32298;BME280;18782;48.984;8.548;2022-09-03T04:41:08;99553.28;;;18.36;74.08
32298;BME280;18782;48.984;8.548;2022-09-03T04:43:36;99547.13;;;18.42;73.48
32298;BME280;18782;48.984;8.548;2022-09-03T04:46:05;99552.34;;;18.43;73.42
32298;BME280;18782;48.984;8.548;2022-09-03T04:48:46;99554.97;;;18.40;74.40
32298;BME280;18782;48.984;8.548;2022-09-03T04:51:16;99561.97;;;18.35;74.06
32298;BME280;18782;48.984;8.548;2022-09-03T04:53:45;99566.34;;;18.35;73.57
32298;BME280;18782;48.984;8.548;2022-09-03T04:56:17;99563.91;;;18.19;73.66
32298;BME280;18782;48.984;8.548;2022-09-03T04:58:45;99573.56;;;18.11;74.66
32298;BME280;18782;48.984;8.548;2022-09-03T05:01:18;99577.00;;;18.15;74.70
32298;BME280;18782;48.984;8.548;2022-09-03T05:03:47;99580.47;;;18.15;75.51
32298;BME280;18782;48.984;8.548;2022-09-03T05:06:17;99582.28;;;18.12;73.99
32298;BME280;18782;48.984;8.548;2022-09-03T05:08:47;99577.09;;;18.09;73.92
32298;BME280;18782;48.984;8.548;2022-09-03T05:11:17;99573.66;;;18.07;74.27
32298;BME280;18782;48.984;8.548;2022-09-03T05:13:46;99576.19;;;18.10;73.74
32298;BME280;18782;48.984;8.548;2022-09-03T05:16:15;99579.69;;;18.09;73.92
32298;BME280;18782;48.984;8.548;2022-09-03T05:18:43;99576.25;;;18.07;74.54
32298;BME280;18782;48.984;8.548;2022-09-03T05:21:13;99579.66;;;18.10;75.10
32298;BME280;18782;48.984;8.548;2022-09-03T05:23:43;99574.41;;;18.15;74.69
32298;BME280;18782;48.984;8.548;2022-09-03T05:26:13;99572.66;;;18.17;75.66
32298;BME280;18782;48.984;8.548;2022-09-03T05:28:43;99579.53;;;18.21;75.46
32298;BME280;18782;48.984;8.548;2022-09-03T05:31:13;99586.50;;;18.19;75.36
32298;BME280;18782;48.984;8.548;2022-09-03T05:33:44;99582.09;;;18.24;75.33
32298;BME280;18782;48.984;8.548;2022-09-03T05:36:13;99574.25;;;18.27;75.54
32298;BME280;18782;48.984;8.548;2022-09-03T05:38:42;99589.84;;;18.30;75.79
32298;BME280;18782;48.984;8.548;2022-09-03T05:41:11;99594.22;;;18.28;75.00
32298;BME280;18782;48.984;8.548;2022-09-03T05:43:40;99600.25;;;18.30;74.48
32298;BME280;18782;48.984;8.548;2022-09-03T05:46:10;99590.66;;;18.35;74.50
32298;BME280;18782;48.984;8.548;2022-09-03T05:48:39;99582.72;;;18.44;75.05
32298;BME280;18782;48.984;8.548;2022-09-03T05:51:09;99596.66;;;18.40;75.21
32298;BME280;18782;48.984;8.548;2022-09-03T05:53:39;99596.75;;;18.34;75.32
32298;BME280;18782;48.984;8.548;2022-09-03T05:56:08;99594.09;;;18.39;75.21
32298;BME280;18782;48.984;8.548;2022-09-03T05:58:38;99594.94;;;18.39;74.60
32298;BME280;18782;48.984;8.548;2022-09-03T06:01:11;99599.25;;;18.43;73.63
32298;BME280;18782;48.984;8.548;2022-09-03T06:03:41;99605.31;;;18.42;73.47
32298;BME280;18782;48.984;8.548;2022-09-03T06:06:10;99615.81;;;18.36;74.02
32298;BME280;18782;48.984;8.548;2022-09-03T06:08:39;99622.81;;;18.31;73.52
32298;BME280;18782;48.984;8.548;2022-09-03T06:11:08;99620.31;;;18.25;74.29
32298;BME280;18782;48.984;8.548;2022-09-03T06:13:36;99622.03;;;18.28;74.64
32298;BME280;18782;48.984;8.548;2022-09-03T06:16:05;99614.13;;;18.32;75.19
32298;BME280;18782;48.984;8.548;2022-09-03T06:18:34;99612.41;;;18.33;74.72
32298;BME280;18782;48.984;8.548;2022-09-03T06:21:04;99612.41;;;18.31;74.16
32298;BME280;18782;48.984;8.548;2022-09-03T06:23:33;99608.06;;;18.33;74.65
32298;BME280;18782;48.984;8.548;2022-09-03T06:26:07;99599.28;;;18.39;74.17
32298;BME280;18782;48.984;8.548;2022-09-03T06:28:37;99600.09;;;18.42;73.34
32298;BME280;18782;48.984;8.548;2022-09-03T06:31:08;99604.41;;;18.48;72.93
32298;BME280;18782;48.984;8.548;2022-09-03T06:33:38;99603.47;;;18.50;73.24
32298;BME280;18782;48.984;8.548;2022-09-03T06:36:08;99605.84;;;18.70;74.03
32298;BME280;18782;48.984;8.548;2022-09-03T06:38:37;99611.66;;;18.89;73.97
32298;BME280;18782;48.984;8.548;2022-09-03T06:41:06;99607.16;;;19.00;73.66
32298;BME280;18782;48.984;8.548;2022-09-03T06:43:36;99605.16;;;19.16;73.72
32298;BME280;18782;48.984;8.548;2022-09-03T06:46:06;99616.97;;;19.39;72.86
32298;BME280;18782;48.984;8.548;2022-09-03T06:48:35;99615.78;;;19.56;71.98
32298;BME280;18782;48.984;8.548;2022-09-03T06:51:05;99620.72;;;19.75;71.49
32298;BME280;18782;48.984;8.548;2022-09-03T06:53:35;99620.59;;;19.81;71.09
32298;BME280;18782;48.984;8.548;2022-09-03T06:56:05;99623.84;;;19.95;70.71
32298;BME280;18782;48.984;8.548;2022-09-03T06:58:34;99622.59;;;20.13;69.98
32298;BME280;18782;48.984;8.548;2022-09-03T07:01:04;99623.28;;;20.23;70.20
32298;BME280;18782;48.984;8.548;2022-09-03T07:03:35;99614.41;;;20.30;69.83
32298;BME280;18782;48.984;8.548;2022-09-03T07:06:07;99621.19;;;20.40;69.31
32298;BME280;18782;48.984;8.548;2022-09-03T07:08:34;99623.63;;;20.49;68.95
32298;BME280;18782;48.984;8.548;2022-09-03T07:11:04;99629.44;;;20.64;68.00
32298;BME280;18782;48.984;8.548;2022-09-03T07:13:35;99628.50;;;20.68;68.01
32298;BME280;18782;48.984;8.548;2022-09-03T07:16:04;99619.75;;;20.67;68.20
32298;BME280;18782;48.984;8.548;2022-09-03T07:18:33;99627.50;;;20.72;66.73
32298;BME280;18782;48.984;8.548;2022-09-03T07:21:03;99617.91;;;20.72;66.93
32298;BME280;18782;48.984;8.548;2022-09-03T07:23:33;99624.88;;;20.73;67.72
32298;BME280;18782;48.984;8.548;2022-09-03T07:26:04;99631.09;;;20.68;67.61
32298;BME280;18782;48.984;8.548;2022-09-03T07:28:35;99621.50;;;20.67;68.07
32298;BME280;18782;48.984;8.548;2022-09-03T07:31:04;99629.41;;;20.65;68.92
32298;BME280;18782;48.984;8.548;2022-09-03T07:33:33;99631.78;;;20.76;68.32
32298;BME280;18782;48.984;8.548;2022-09-03T07:36:02;99628.78;;;20.94;68.49
32298;BME280;18782;48.984;8.548;2022-09-03T07:38:33;99642.66;;;20.96;67.13
32298;BME280;18782;48.984;8.548;2022-09-03T07:41:02;99637.44;;;20.96;66.76
32298;BME280;18782;48.984;8.548;2022-09-03T07:43:33;99645.56;;;20.84;66.77
32298;BME280;18782;48.984;8.548;2022-09-03T07:46:02;99660.69;;;20.70;67.08
32298;BME280;18782;48.984;8.548;2022-09-03T07:48:30;99654.53;;;20.72;67.35
32298;BME280;18782;48.984;8.548;2022-09-03T07:51:02;99663.06;;;20.80;67.84
32298;BME280;18782;48.984;8.548;2022-09-03T07:53:30;99660.38;;;20.85;67.06
32298;BME280;18782;48.984;8.548;2022-09-03T07:56:04;99654.94;;;20.94;67.60
32298;BME280;18782;48.984;8.548;2022-09-03T07:58:33;99659.06;;;21.04;68.03
32298;BME280;18782;48.984;8.548;2022-09-03T08:01:04;99663.19;;;21.15;67.23
32298;BME280;18782;48.984;8.548;2022-09-03T08:03:37;99663.84;;;21.23;67.09
32298;BME280;18782;48.984;8.548;2022-09-03T08:06:06;99658.41;;;21.33;66.93
32298;BME280;18782;48.984;8.548;2022-09-03T08:08:35;99666.22;;;21.35;65.24
32298;BME280;18782;48.984;8.548;2022-09-03T08:11:06;99671.44;;;21.35;65.69
32298;BME280;18782;48.984;8.548;2022-09-03T08:13:37;99685.69;;;21.22;65.96
32298;BME280;18782;48.984;8.548;2022-09-03T08:16:06;99696.47;;;21.09;66.89
32298;BME280;18782;48.984;8.548;2022-09-03T08:18:35;99691.00;;;21.19;67.46
32298;BME280;18782;48.984;8.548;2022-09-03T08:21:05;99703.91;;;21.26;67.26
32298;BME280;18782;48.984;8.548;2022-09-03T08:23:36;99702.03;;;20.94;68.02
32298;BME280;18782;48.984;8.548;2022-09-03T08:26:06;99700.84;;;21.07;67.78
32298;BME280;18782;48.984;8.548;2022-09-03T08:28:34;99686.75;;;21.13;67.37
32298;BME280;18782;48.984;8.548;2022-09-03T08:31:06;99683.13;;;21.19;68.34
32298;BME280;18782;48.984;8.548;2022-09-03T08:33:35;99668.19;;;21.24;67.33
32298;BME280;18782;48.984;8.548;2022-09-03T08:36:05;99669.94;;;21.25;67.14
32298;BME280;18782;48.984;8.548;2022-09-03T08:38:34;99668.00;;;21.33;67.10
32298;BME280;18782;48.984;8.548;2022-09-03T08:41:06;99668.09;;;21.30;67.50
32298;BME280;18782;48.984;8.548;2022-09-03T08:43:49;99673.41;;;21.24;67.40
32298;BME280;18782;48.984;8.548;2022-09-03T08:46:23;99676.34;;;21.11;67.50
32298;BME280;18782;48.984;8.548;2022-09-03T08:48:55;99670.31;;;21.08;67.92
32298;BME280;18782;48.984;8.548;2022-09-03T08:51:24;99677.28;;;21.07;68.51
32298;BME280;18782;48.984;8.548;2022-09-03T08:53:54;99679.91;;;21.07;68.67
32298;BME280;18782;48.984;8.548;2022-09-03T08:56:26;99671.84;;;21.17;68.64
32298;BME280;18782;48.984;8.548;2022-09-03T08:58:55;99668.28;;;21.21;68.88
32298;BME280;18782;48.984;8.548;2022-09-03T09:01:30;99662.88;;;21.30;68.73
32298;BME280;18782;48.984;8.548;2022-09-03T09:04:09;99660.97;;;21.35;68.72
32298;BME280;18782;48.984;8.548;2022-09-03T09:06:45;99665.78;;;21.53;68.84
32298;BME280;18782;48.984;8.548;2022-09-03T09:09:22;99672.72;;;21.54;68.72
32298;BME280;18782;48.984;8.548;2022-09-03T09:12:03;99667.09;;;21.35;68.60
32298;BME280;18782;48.984;8.548;2022-09-03T09:14:44;99667.94;;;21.72;68.64
32298;BME280;18782;48.984;8.548;2022-09-03T09:17:28;99672.13;;;21.79;67.97
32298;BME280;18782;48.984;8.548;2022-09-03T09:20:05;99662.03;;;21.96;66.38
32298;BME280;18782;48.984;8.548;2022-09-03T09:22:38;99660.50;;;22.22;66.18
32298;BME280;18782;48.984;8.548;2022-09-03T09:25:17;99667.41;;;22.26;65.35
32298;BME280;18782;48.984;8.548;2022-09-03T09:27:51;99660.81;;;22.42;66.40
32298;BME280;18782;48.984;8.548;2022-09-03T09:30:21;99656.16;;;22.52;65.84
32298;BME280;18782;48.984;8.548;2022-09-03T09:32:49;99659.22;;;22.67;65.47
32298;BME280;18782;48.984;8.548;2022-09-03T09:35:17;99662.16;;;22.57;65.07
32298;BME280;18782;48.984;8.548;2022-09-03T09:37:47;99656.75;;;22.32;65.50
32298;BME280;18782;48.984;8.548;2022-09-03T09:40:27;99650.09;;;22.50;65.48
32298;BME280;18782;48.984;8.548;2022-09-03T09:43:10;99647.34;;;22.54;65.04
32298;BME280;18782;48.984;8.548;2022-09-03T09:45:42;99645.19;;;22.69;64.77
32298;BME280;18782;48.984;8.548;2022-09-03T09:48:19;99650.16;;;22.78;64.54
32298;BME280;18782;48.984;8.548;2022-09-03T09:50:47;99645.56;;;22.84;64.99
32298;BME280;18782;48.984;8.548;2022-09-03T09:53:16;99652.38;;;22.91;63.81
32298;BME280;18782;48.984;8.548;2022-09-03T09:55:51;99639.84;;;22.72;63.63
32298;BME280;18782;48.984;8.548;2022-09-03T09:58:22;99648.34;;;22.80;63.75
32298;BME280;18782;48.984;8.548;2022-09-03T10:00:58;99649.53;;;22.99;64.11
32298;BME280;18782;48.984;8.548;2022-09-03T10:03:31;99645.72;;;23.09;63.37
32298;BME280;18782;48.984;8.548;2022-09-03T10:06:04;99646.34;;;23.44;63.63
32298;BME280;18782;48.984;8.548;2022-09-03T10:08:46;99647.56;;;23.60;62.93
32298;BME280;18782;48.984;8.548;2022-09-03T10:11:16;99642.75;;;23.73;61.65
32298;BME280;18782;48.984;8.548;2022-09-03T10:13:46;99641.59;;;23.82;61.00
32298;BME280;18782;48.984;8.548;2022-09-03T10:16:21;99639.53;;;24.15;60.25
32298;BME280;18782;48.984;8.548;2022-09-03T10:18:57;99640.78;;;24.53;59.91
32298;BME280;18782;48.984;8.548;2022-09-03T10:21:29;99636.94;;;24.85;58.33
32298;BME280;18782;48.984;8.548;2022-09-03T10:24:07;99632.56;;;25.08;57.94
32298;BME280;18782;48.984;8.548;2022-09-03T10:26:42;99632.19;;;25.17;56.80
32298;BME280;18782;48.984;8.548;2022-09-03T10:29:17;99634.25;;;25.31;56.92
32298;BME280;18782;48.984;8.548;2022-09-03T10:31:59;99628.34;;;25.46;57.67
32298;BME280;18782;48.984;8.548;2022-09-03T10:34:33;99621.25;;;25.48;57.17
32298;BME280;18782;48.984;8.548;2022-09-03T10:37:17;99608.22;;;25.65;56.25
32298;BME280;18782;48.984;8.548;2022-09-03T10:39:54;99615.19;;;25.66;54.74
32298;BME280;18782;48.984;8.548;2022-09-03T10:42:34;99618.91;;;25.83;55.14
32298;BME280;18782;48.984;8.548;2022-09-03T10:45:16;99614.22;;;25.69;54.43
32298;BME280;18782;48.984;8.548;2022-09-03T10:48:01;99618.31;;;25.96;54.56
32298;BME280;18782;48.984;8.548;2022-09-03T10:50:40;99619.19;;;25.97;53.70
32298;BME280;18782;48.984;8.548;2022-09-03T10:53:20;99617.53;;;25.74;54.10
32298;BME280;18782;48.984;8.548;2022-09-03T10:55:57;99633.22;;;25.35;53.75
32298;BME280;18782;48.984;8.548;2022-09-03T10:58:44;99633.81;;;24.76;55.09
32298;BME280;18782;48.984;8.548;2022-09-03T11:01:25;99639.06;;;24.52;55.93
32298;BME280;18782;48.984;8.548;2022-09-03T11:04:03;99639.69;;;24.10;56.19
32298;BME280;18782;48.984;8.548;2022-09-03T11:06:41;99631.56;;;23.93;55.81
32298;BME280;18782;48.984;8.548;2022-09-03T11:09:17;99631.59;;;23.40;56.67
32298;BME280;18782;48.984;8.548;2022-09-03T11:11:50;99634.78;;;23.50;57.63
32298;BME280;18782;48.984;8.548;2022-09-03T11:14:29;99634.81;;;23.75;56.91
32298;BME280;18782;48.984;8.548;2022-09-03T11:17:05;99627.47;;;23.84;56.15
32298;BME280;18782;48.984;8.548;2022-09-03T11:19:41;99637.59;;;23.95;56.55
32298;BME280;18782;48.984;8.548;2022-09-03T11:22:13;99640.84;;;24.03;62.16
32298;BME280;18782;48.984;8.548;2022-09-03T11:24:51;99641.28;;;23.91;64.87
32298;BME280;18782;48.984;8.548;2022-09-03T11:27:31;99643.78;;;23.94;65.25
32298;BME280;18782;48.984;8.548;2022-09-03T11:30:04;99641.31;;;24.14;66.49
32298;BME280;18782;48.984;8.548;2022-09-03T11:32:44;99631.03;;;24.32;64.46
32298;BME280;18782;48.984;8.548;2022-09-03T11:35:25;99639.66;;;24.60;65.32
32298;BME280;18782;48.984;8.548;2022-09-03T11:37:58;99639.69;;;25.04;65.55
32298;BME280;18782;48.984;8.548;2022-09-03T11:40:32;99637.81;;;25.30;64.02
32298;BME280;18782;48.984;8.548;2022-09-03T11:43:06;99632.69;;;25.47;63.10
32298;BME280;18782;48.984;8.548;2022-09-03T11:45:35;99619.53;;;25.67;61.73
32298;BME280;18782;48.984;8.548;2022-09-03T11:48:33;99617.31;;;25.79;60.92
32298;BME280;18782;48.984;8.548;2022-09-03T11:51:01;99618.41;;;25.74;61.34
32298;BME280;18782;48.984;8.548;2022-09-03T11:53:33;99616.94;;;25.88;61.28
32298;BME280;18782;48.984;8.548;2022-09-03T11:56:16;99619.53;;;25.67;60.95
32298;BME280;18782;48.984;8.548;2022-09-03T11:58:45;99623.09;;;25.66;61.02
32298;BME280;18782;48.984;8.548;2022-09-03T12:01:15;99617.75;;;25.68;61.10
32298;BME280;18782;48.984;8.548;2022-09-03T12:03:47;99619.97;;;26.38;60.94
32298;BME280;18782;48.984;8.548;2022-09-03T12:06:30;99619.69;;;27.01;58.04
32298;BME280;18782;48.984;8.548;2022-09-03T12:09:24;99617.63;;;27.25;56.53
32298;BME280;18782;48.984;8.548;2022-09-03T12:12:06;99609.38;;;27.67;55.34
32298;BME280;18782;48.984;8.548;2022-09-03T12:14:45;99622.41;;;27.88;54.20
32298;BME280;18782;48.984;8.548;2022-09-03T12:17:21;99619.72;;;27.89;53.81
32298;BME280;18782;48.984;8.548;2022-09-03T12:19:55;99614.19;;;27.76;54.33
32298;BME280;18782;48.984;8.548;2022-09-03T12:22:25;99620.72;;;27.87;53.33
32298;BME280;18782;48.984;8.548;2022-09-03T12:24:54;99618.06;;;27.69;53.17
32298;BME280;18782;48.984;8.548;2022-09-03T12:27:23;99625.38;;;27.99;53.00
32298;BME280;18782;48.984;8.548;2022-09-03T12:29:54;99620.09;;;28.32;52.33
32298;BME280;18782;48.984;8.548;2022-09-03T12:32:25;99616.97;;;28.41;51.93
32298;BME280;18782;48.984;8.548;2022-09-03T12:34:55;99615.31;;;28.88;50.21
32298;BME280;18782;48.984;8.548;2022-09-03T12:37:24;99628.28;;;28.27;51.54
32298;BME280;18782;48.984;8.548;2022-09-03T12:40:17;99631.28;;;28.04;52.43
32298;BME280;18782;48.984;8.548;2022-09-03T12:42:47;99618.06;;;27.52;53.37
32298;BME280;18782;48.984;8.548;2022-09-03T12:45:19;99623.06;;;27.75;53.68
32298;BME280;18782;48.984;8.548;2022-09-03T12:47:49;99625.06;;;28.05;53.29
32298;BME280;18782;48.984;8.548;2022-09-03T12:50:20;99617.94;;;28.56;51.92
32298;BME280;18782;48.984;8.548;2022-09-03T12:52:51;99623.06;;;29.52;50.19
32298;BME280;18782;48.984;8.548;2022-09-03T12:55:28;99622.38;;;30.37;46.39
32298;BME280;18782;48.984;8.548;2022-09-03T12:58:04;99620.75;;;31.32;44.51
32298;BME280;18782;48.984;8.548;2022-09-03T13:00:41;99632.81;;;32.28;41.72
32298;BME280;18782;48.984;8.548;2022-09-03T13:03:16;99631.13;;;30.39;41.57
32298;BME280;18782;48.984;8.548;2022-09-03T13:05:50;99623.31;;;29.18;43.76
32298;BME280;18782;48.984;8.548;2022-09-03T13:08:21;99624.84;;;28.74;44.81
32298;BME280;18782;48.984;8.548;2022-09-03T13:10:51;99628.34;;;27.75;47.31
32298;BME280;18782;48.984;8.548;2022-09-03T13:13:23;99628.34;;;27.41;48.63
32298;BME280;18782;48.984;8.548;2022-09-03T13:16:13;99623.25;;;27.00;51.06
32298;BME280;18782;48.984;8.548;2022-09-03T13:18:53;99629.06;;;26.12;50.52
32298;BME280;18782;48.984;8.548;2022-09-03T13:21:34;99638.56;;;25.75;52.36
32298;BME280;18782;48.984;8.548;2022-09-03T13:24:22;99642.09;;;25.54;54.17
32298;BME280;18782;48.984;8.548;2022-09-03T13:27:01;99637.59;;;25.56;54.12
32298;BME280;18782;48.984;8.548;2022-09-03T13:29:38;99642.00;;;25.13;55.33
32298;BME280;18782;48.984;8.548;2022-09-03T13:32:21;99646.22;;;24.94;56.36
32298;BME280;18782;48.984;8.548;2022-09-03T13:34:56;99643.78;;;24.89;57.07